sensor_id;sensor_type;location;lat;lon;timestamp;P1;durP1;ratioP1;P2;durP2;ratioP2
77158;SDS011;66129;45.890;13.714;2023-09-19T00:02:19;17.80;;;9.93;;
77158;SDS011;66129;45.890;13.714;2023-09-19T00:04:45;17.33;;;10.05;;
77158;SDS011;66129;45.890;13.714;2023-09-19T00:07:10;17.48;;;9.48;;
77158;SDS011;66129;45.890;13.714;2023-09-19T00:09:36;11.95;;;8.10;;
77158;SDS011;66129;45.890;13.714;2023-09-19T00:12:05;16.88;;;9.50;;
77158;SDS011;66129;45.890;13.714;2023-09-19T00:14:31;15.75;;;9.75;;
77158;SDS011;66129;45.890;13.714;2023-09-19T00:16:59;18.63;;;10.35;;
77158;SDS011;66129;45.890;13.714;2023-09-19T00:19:25;15.75;;;9.07;;
77158;SDS011;66129;45.890;13.714;2023-09-19T00:21:51;18.88;;;10.13;;
77158;SDS011;66129;45.890;13.714;2023-09-19T00:24:18;18.60;;;10.15;;
77158;SDS011;66129;45.890;13.714;2023-09-19T00:26:43;20.33;;;9.75;;
77158;SDS011;66129;45.890;13.714;2023-09-19T00:29:11;14.73;;;8.93;;
77158;SDS011;66129;45.890;13.714;2023-09-19T00:31:43;17.40;;;9.77;;
77158;SDS011;66129;45.890;13.714;2023-09-19T00:34:08;19.02;;;10.27;;
77158;SDS011;66129;45.890;13.714;2023-09-19T00:36:36;17.85;;;10.13;;
77158;SDS011;66129;45.890;13.714;2023-09-19T00:39:03;17.98;;;9.05;;
77158;SDS011;66129;45.890;13.714;2023-09-19T00:41:31;19.42;;;8.88;;
77158;SDS011;66129;45.890;13.714;2023-09-19T00:43:57;18.63;;;10.52;;
77158;SDS011;66129;45.890;13.714;2023-09-19T00:46:22;13.32;;;8.70;;
77158;SDS011;66129;45.890;13.714;2023-09-19T00:48:48;16.73;;;9.55;;
77158;SDS011;66129;45.890;13.714;2023-09-19T00:51:14;21.42;;;9.77;;
77158;SDS011;66129;45.890;13.714;2023-09-19T00:53:44;16.67;;;10.23;;
77158;SDS011;66129;45.890;13.714;2023-09-19T00:56:11;19.70;;;10.43;;
77158;SDS011;66129;45.890;13.714;2023-09-19T00:58:37;16.80;;;9.73;;
77158;SDS011;66129;45.890;13.714;2023-09-19T01:01:03;18.00;;;9.98;;
77158;SDS011;66129;45.890;13.714;2023-09-19T01:03:32;22.90;;;10.43;;
77158;SDS011;66129;45.890;13.714;2023-09-19T01:05:59;18.75;;;9.85;;
77158;SDS011;66129;45.890;13.714;2023-09-19T01:08:25;16.58;;;9.00;;
77158;SDS011;66129;45.890;13.714;2023-09-19T01:11:06;16.67;;;9.65;;
77158;SDS011;66129;45.890;13.714;2023-09-19T01:14:01;14.48;;;9.65;;
77158;SDS011;66129;45.890;13.714;2023-09-19T01:16:38;16.65;;;9.68;;
77158;SDS011;66129;45.890;13.714;2023-09-19T01:29:42;16.63;;;9.73;;
77158;SDS011;66129;45.890;13.714;2023-09-19T01:32:13;17.13;;;10.10;;
77158;SDS011;66129;45.890;13.714;2023-09-19T01:37:18;22.83;;;10.40;;
77158;SDS011;66129;45.890;13.714;2023-09-19T01:39:49;16.92;;;10.38;;
77158;SDS011;66129;45.890;13.714;2023-09-19T01:44:51;15.90;;;9.27;;
77158;SDS011;66129;45.890;13.714;2023-09-19T01:50:12;18.60;;;10.27;;
77158;SDS011;66129;45.890;13.714;2023-09-19T01:52:54;19.63;;;9.32;;
77158;SDS011;66129;45.890;13.714;2023-09-19T01:55:26;19.33;;;10.32;;
77158;SDS011;66129;45.890;13.714;2023-09-19T02:00:37;18.85;;;9.60;;
77158;SDS011;66129;45.890;13.714;2023-09-19T02:03:07;19.15;;;9.30;;
77158;SDS011;66129;45.890;13.714;2023-09-19T02:05:35;20.75;;;9.40;;
77158;SDS011;66129;45.890;13.714;2023-09-19T02:08:00;15.35;;;8.82;;
77158;SDS011;66129;45.890;13.714;2023-09-19T02:10:26;17.60;;;9.80;;
77158;SDS011;66129;45.890;13.714;2023-09-19T02:12:51;19.95;;;9.40;;
77158;SDS011;66129;45.890;13.714;2023-09-19T02:15:17;17.33;;;8.98;;
77158;SDS011;66129;45.890;13.714;2023-09-19T02:17:43;15.73;;;10.07;;
77158;SDS011;66129;45.890;13.714;2023-09-19T02:20:09;19.83;;;10.38;;
77158;SDS011;66129;45.890;13.714;2023-09-19T02:22:40;17.70;;;9.73;;
77158;SDS011;66129;45.890;13.714;2023-09-19T02:25:06;19.42;;;9.48;;
77158;SDS011;66129;45.890;13.714;2023-09-19T02:27:33;16.35;;;8.15;;
77158;SDS011;66129;45.890;13.714;2023-09-19T02:29:58;20.58;;;10.25;;
77158;SDS011;66129;45.890;13.714;2023-09-19T02:32:24;18.00;;;9.98;;
77158;SDS011;66129;45.890;13.714;2023-09-19T02:34:49;21.67;;;9.35;;
77158;SDS011;66129;45.890;13.714;2023-09-19T02:37:17;20.52;;;10.15;;
77158;SDS011;66129;45.890;13.714;2023-09-19T02:39:44;15.65;;;9.30;;
77158;SDS011;66129;45.890;13.714;2023-09-19T02:42:09;18.13;;;10.32;;
77158;SDS011;66129;45.890;13.714;2023-09-19T02:44:35;15.00;;;9.68;;
77158;SDS011;66129;45.890;13.714;2023-09-19T02:47:00;20.42;;;10.35;;
77158;SDS011;66129;45.890;13.714;2023-09-19T02:49:26;20.85;;;10.02;;
77158;SDS011;66129;45.890;13.714;2023-09-19T02:51:51;19.08;;;9.68;;
77158;SDS011;66129;45.890;13.714;2023-09-19T02:54:17;17.20;;;9.90;;
77158;SDS011;66129;45.890;13.714;2023-09-19T02:56:43;13.10;;;8.80;;
77158;SDS011;66129;45.890;13.714;2023-09-19T02:59:08;20.55;;;10.23;;
77158;SDS011;66129;45.890;13.714;2023-09-19T03:01:35;20.05;;;10.00;;
77158;SDS011;66129;45.890;13.714;2023-09-19T03:04:02;20.38;;;10.02;;
77158;SDS011;66129;45.890;13.714;2023-09-19T03:06:28;13.55;;;8.63;;
77158;SDS011;66129;45.890;13.714;2023-09-19T03:08:56;20.17;;;10.23;;
77158;SDS011;66129;45.890;13.714;2023-09-19T03:11:21;18.80;;;9.23;;
77158;SDS011;66129;45.890;13.714;2023-09-19T03:13:54;23.10;;;8.98;;
77158;SDS011;66129;45.890;13.714;2023-09-19T03:16:20;18.42;;;9.80;;
77158;SDS011;66129;45.890;13.714;2023-09-19T03:18:50;16.55;;;8.85;;
77158;SDS011;66129;45.890;13.714;2023-09-19T03:21:16;24.30;;;11.05;;
77158;SDS011;66129;45.890;13.714;2023-09-19T03:23:42;21.20;;;10.50;;
77158;SDS011;66129;45.890;13.714;2023-09-19T03:26:10;15.68;;;9.25;;
77158;SDS011;66129;45.890;13.714;2023-09-19T03:28:42;20.38;;;9.38;;
77158;SDS011;66129;45.890;13.714;2023-09-19T03:31:08;18.85;;;9.60;;
77158;SDS011;66129;45.890;13.714;2023-09-19T03:33:34;16.17;;;9.60;;
77158;SDS011;66129;45.890;13.714;2023-09-19T03:36:00;21.85;;;10.25;;
77158;SDS011;66129;45.890;13.714;2023-09-19T03:38:30;22.85;;;9.23;;
77158;SDS011;66129;45.890;13.714;2023-09-19T03:40:57;18.02;;;8.82;;
77158;SDS011;66129;45.890;13.714;2023-09-19T03:43:23;15.05;;;8.82;;
77158;SDS011;66129;45.890;13.714;2023-09-19T03:45:48;15.02;;;8.75;;
77158;SDS011;66129;45.890;13.714;2023-09-19T03:48:15;19.33;;;8.15;;
77158;SDS011;66129;45.890;13.714;2023-09-19T03:50:41;22.88;;;9.15;;
77158;SDS011;66129;45.890;13.714;2023-09-19T03:53:09;21.83;;;8.85;;
77158;SDS011;66129;45.890;13.714;2023-09-19T03:55:35;19.02;;;8.88;;
77158;SDS011;66129;45.890;13.714;2023-09-19T03:58:01;21.58;;;9.23;;
77158;SDS011;66129;45.890;13.714;2023-09-19T04:00:27;24.13;;;9.77;;
77158;SDS011;66129;45.890;13.714;2023-09-19T04:02:53;20.92;;;9.52;;
77158;SDS011;66129;45.890;13.714;2023-09-19T04:05:21;17.15;;;7.85;;
77158;SDS011;66129;45.890;13.714;2023-09-19T04:07:46;20.33;;;9.52;;
77158;SDS011;66129;45.890;13.714;2023-09-19T04:10:12;15.27;;;9.27;;
77158;SDS011;66129;45.890;13.714;2023-09-19T04:12:38;17.73;;;8.60;;
77158;SDS011;66129;45.890;13.714;2023-09-19T04:15:04;18.40;;;9.15;;
77158;SDS011;66129;45.890;13.714;2023-09-19T04:17:31;19.55;;;10.15;;
77158;SDS011;66129;45.890;13.714;2023-09-19T04:19:58;21.58;;;8.35;;
77158;SDS011;66129;45.890;13.714;2023-09-19T04:22:24;17.88;;;8.30;;
77158;SDS011;66129;45.890;13.714;2023-09-19T04:24:49;17.85;;;9.98;;
77158;SDS011;66129;45.890;13.714;2023-09-19T04:27:15;26.05;;;8.75;;
77158;SDS011;66129;45.890;13.714;2023-09-19T04:29:40;22.73;;;8.95;;
77158;SDS011;66129;45.890;13.714;2023-09-19T04:32:06;15.77;;;8.10;;
77158;SDS011;66129;45.890;13.714;2023-09-19T04:34:33;19.38;;;8.05;;
77158;SDS011;66129;45.890;13.714;2023-09-19T04:36:59;22.17;;;9.32;;
77158;SDS011;66129;45.890;13.714;2023-09-19T04:39:26;16.15;;;8.30;;
77158;SDS011;66129;45.890;13.714;2023-09-19T04:41:52;22.90;;;9.05;;
77158;SDS011;66129;45.890;13.714;2023-09-19T04:44:18;21.58;;;10.32;;
77158;SDS011;66129;45.890;13.714;2023-09-19T04:46:43;14.90;;;8.07;;
77158;SDS011;66129;45.890;13.714;2023-09-19T04:49:11;21.55;;;9.15;;
77158;SDS011;66129;45.890;13.714;2023-09-19T04:51:37;17.13;;;8.68;;
77158;SDS011;66129;45.890;13.714;2023-09-19T04:54:03;24.10;;;8.80;;
77158;SDS011;66129;45.890;13.714;2023-09-19T04:56:29;23.10;;;9.02;;
77158;SDS011;66129;45.890;13.714;2023-09-19T04:58:54;21.42;;;9.20;;
77158;SDS011;66129;45.890;13.714;2023-09-19T05:01:20;17.55;;;9.57;;
77158;SDS011;66129;45.890;13.714;2023-09-19T05:03:47;23.67;;;9.50;;
77158;SDS011;66129;45.890;13.714;2023-09-19T05:06:17;15.00;;;7.88;;
77158;SDS011;66129;45.890;13.714;2023-09-19T05:08:43;20.85;;;8.32;;
77158;SDS011;66129;45.890;13.714;2023-09-19T05:11:08;22.90;;;8.73;;
77158;SDS011;66129;45.890;13.714;2023-09-19T05:13:34;17.20;;;7.30;;
77158;SDS011;66129;45.890;13.714;2023-09-19T05:16:00;18.85;;;8.27;;
77158;SDS011;66129;45.890;13.714;2023-09-19T05:18:29;24.20;;;8.95;;
77158;SDS011;66129;45.890;13.714;2023-09-19T05:20:54;21.35;;;8.68;;
77158;SDS011;66129;45.890;13.714;2023-09-19T05:23:19;22.17;;;7.70;;
77158;SDS011;66129;45.890;13.714;2023-09-19T05:25:46;20.45;;;9.07;;
77158;SDS011;66129;45.890;13.714;2023-09-19T05:28:12;16.85;;;7.85;;
77158;SDS011;66129;45.890;13.714;2023-09-19T05:30:40;28.75;;;8.13;;
77158;SDS011;66129;45.890;13.714;2023-09-19T05:33:06;16.52;;;7.53;;
77158;SDS011;66129;45.890;13.714;2023-09-19T05:35:32;22.30;;;7.75;;
77158;SDS011;66129;45.890;13.714;2023-09-19T05:37:59;18.17;;;7.70;;
77158;SDS011;66129;45.890;13.714;2023-09-19T05:40:25;19.25;;;8.43;;
77158;SDS011;66129;45.890;13.714;2023-09-19T05:42:51;23.92;;;8.35;;
77158;SDS011;66129;45.890;13.714;2023-09-19T05:45:17;18.48;;;8.52;;
77158;SDS011;66129;45.890;13.714;2023-09-19T05:47:47;20.38;;;8.77;;
77158;SDS011;66129;45.890;13.714;2023-09-19T05:50:15;18.10;;;8.20;;
77158;SDS011;66129;45.890;13.714;2023-09-19T05:52:41;23.50;;;7.97;;
77158;SDS011;66129;45.890;13.714;2023-09-19T05:55:09;20.23;;;7.72;;
77158;SDS011;66129;45.890;13.714;2023-09-19T05:57:36;21.35;;;8.48;;
77158;SDS011;66129;45.890;13.714;2023-09-19T06:00:04;23.20;;;8.45;;
77158;SDS011;66129;45.890;13.714;2023-09-19T06:02:35;21.10;;;7.38;;
77158;SDS011;66129;45.890;13.714;2023-09-19T06:05:04;19.35;;;8.55;;
77158;SDS011;66129;45.890;13.714;2023-09-19T06:07:35;20.65;;;7.97;;
77158;SDS011;66129;45.890;13.714;2023-09-19T06:10:03;19.77;;;8.13;;
77158;SDS011;66129;45.890;13.714;2023-09-19T06:12:31;17.33;;;7.07;;
77158;SDS011;66129;45.890;13.714;2023-09-19T06:14:58;32.70;;;9.25;;
77158;SDS011;66129;45.890;13.714;2023-09-19T06:17:24;19.48;;;8.45;;
77158;SDS011;66129;45.890;13.714;2023-09-19T06:19:52;19.42;;;8.55;;
77158;SDS011;66129;45.890;13.714;2023-09-19T06:22:17;16.20;;;7.88;;
77158;SDS011;66129;45.890;13.714;2023-09-19T06:24:43;16.77;;;6.72;;
77158;SDS011;66129;45.890;13.714;2023-09-19T06:27:09;20.38;;;7.05;;
77158;SDS011;66129;45.890;13.714;2023-09-19T06:29:35;21.17;;;7.32;;
77158;SDS011;66129;45.890;13.714;2023-09-19T06:32:06;16.90;;;7.43;;
77158;SDS011;66129;45.890;13.714;2023-09-19T06:34:33;19.20;;;6.60;;
77158;SDS011;66129;45.890;13.714;2023-09-19T06:36:59;21.05;;;6.97;;
77158;SDS011;66129;45.890;13.714;2023-09-19T06:39:25;19.40;;;6.47;;
77158;SDS011;66129;45.890;13.714;2023-09-19T06:41:51;25.55;;;6.57;;
77158;SDS011;66129;45.890;13.714;2023-09-19T06:44:18;15.73;;;5.78;;
77158;SDS011;66129;45.890;13.714;2023-09-19T06:46:46;17.73;;;4.75;;
77158;SDS011;66129;45.890;13.714;2023-09-19T06:49:16;17.23;;;5.85;;
77158;SDS011;66129;45.890;13.714;2023-09-19T06:51:42;17.50;;;5.25;;
77158;SDS011;66129;45.890;13.714;2023-09-19T06:54:09;15.77;;;5.10;;
77158;SDS011;66129;45.890;13.714;2023-09-19T06:56:35;14.75;;;5.32;;
77158;SDS011;66129;45.890;13.714;2023-09-19T06:59:00;16.73;;;5.47;;
77158;SDS011;66129;45.890;13.714;2023-09-19T07:01:27;12.57;;;4.80;;
77158;SDS011;66129;45.890;13.714;2023-09-19T07:03:53;14.02;;;4.72;;
77158;SDS011;66129;45.890;13.714;2023-09-19T07:06:18;14.75;;;4.72;;
77158;SDS011;66129;45.890;13.714;2023-09-19T07:08:44;18.92;;;4.78;;
77158;SDS011;66129;45.890;13.714;2023-09-19T07:11:10;14.88;;;4.72;;
77158;SDS011;66129;45.890;13.714;2023-09-19T07:13:37;16.58;;;5.35;;
77158;SDS011;66129;45.890;13.714;2023-09-19T07:16:03;17.98;;;4.93;;
77158;SDS011;66129;45.890;13.714;2023-09-19T07:18:29;22.90;;;5.05;;
77158;SDS011;66129;45.890;13.714;2023-09-19T07:20:57;14.48;;;4.78;;
77158;SDS011;66129;45.890;13.714;2023-09-19T07:23:30;20.30;;;6.75;;
77158;SDS011;66129;45.890;13.714;2023-09-19T07:26:00;17.25;;;4.93;;
77158;SDS011;66129;45.890;13.714;2023-09-19T07:28:27;9.60;;;4.47;;
77158;SDS011;66129;45.890;13.714;2023-09-19T07:30:53;21.52;;;6.65;;
77158;SDS011;66129;45.890;13.714;2023-09-19T07:33:19;18.42;;;5.00;;
77158;SDS011;66129;45.890;13.714;2023-09-19T07:35:45;10.35;;;4.53;;
77158;SDS011;66129;45.890;13.714;2023-09-19T07:38:13;10.73;;;5.57;;
77158;SDS011;66129;45.890;13.714;2023-09-19T07:40:39;14.50;;;5.07;;
77158;SDS011;66129;45.890;13.714;2023-09-19T07:43:05;20.60;;;5.05;;
77158;SDS011;66129;45.890;13.714;2023-09-19T07:45:31;15.52;;;4.38;;
77158;SDS011;66129;45.890;13.714;2023-09-19T07:47:57;12.82;;;5.72;;
77158;SDS011;66129;45.890;13.714;2023-09-19T07:50:23;22.05;;;5.85;;
77158;SDS011;66129;45.890;13.714;2023-09-19T07:52:49;12.80;;;4.15;;
77158;SDS011;66129;45.890;13.714;2023-09-19T07:55:19;12.25;;;5.25;;
77158;SDS011;66129;45.890;13.714;2023-09-19T07:57:48;18.58;;;4.32;;
77158;SDS011;66129;45.890;13.714;2023-09-19T08:00:14;26.08;;;4.70;;
77158;SDS011;66129;45.890;13.714;2023-09-19T08:02:40;16.70;;;4.90;;
77158;SDS011;66129;45.890;13.714;2023-09-19T08:05:07;12.02;;;4.30;;
77158;SDS011;66129;45.890;13.714;2023-09-19T08:07:51;10.77;;;3.67;;
77158;SDS011;66129;45.890;13.714;2023-09-19T08:10:17;16.83;;;6.72;;
77158;SDS011;66129;45.890;13.714;2023-09-19T08:12:44;17.73;;;5.22;;
77158;SDS011;66129;45.890;13.714;2023-09-19T08:15:20;12.48;;;5.28;;
77158;SDS011;66129;45.890;13.714;2023-09-19T08:17:46;16.75;;;4.90;;
77158;SDS011;66129;45.890;13.714;2023-09-19T08:20:15;12.30;;;3.92;;
77158;SDS011;66129;45.890;13.714;2023-09-19T08:22:48;14.68;;;4.30;;
77158;SDS011;66129;45.890;13.714;2023-09-19T08:25:19;13.80;;;4.28;;
77158;SDS011;66129;45.890;13.714;2023-09-19T08:27:45;17.77;;;5.20;;
77158;SDS011;66129;45.890;13.714;2023-09-19T08:30:14;14.82;;;4.03;;
77158;SDS011;66129;45.890;13.714;2023-09-19T08:32:40;15.00;;;4.85;;
77158;SDS011;66129;45.890;13.714;2023-09-19T08:35:07;14.88;;;4.57;;
77158;SDS011;66129;45.890;13.714;2023-09-19T08:37:34;13.32;;;4.60;;
77158;SDS011;66129;45.890;13.714;2023-09-19T08:40:00;9.38;;;4.10;;
77158;SDS011;66129;45.890;13.714;2023-09-19T08:42:25;13.38;;;3.53;;
77158;SDS011;66129;45.890;13.714;2023-09-19T08:44:52;14.80;;;5.68;;
77158;SDS011;66129;45.890;13.714;2023-09-19T08:47:36;13.27;;;4.05;;
77158;SDS011;66129;45.890;13.714;2023-09-19T08:50:11;11.00;;;3.15;;
77158;SDS011;66129;45.890;13.714;2023-09-19T08:52:53;7.75;;;2.83;;
77158;SDS011;66129;45.890;13.714;2023-09-19T08:55:23;8.25;;;2.30;;
77158;SDS011;66129;45.890;13.714;2023-09-19T08:57:52;11.13;;;2.38;;
77158;SDS011;66129;45.890;13.714;2023-09-19T09:00:24;8.13;;;2.10;;
77158;SDS011;66129;45.890;13.714;2023-09-19T09:02:56;5.10;;;2.00;;
77158;SDS011;66129;45.890;13.714;2023-09-19T09:05:23;5.05;;;2.15;;
77158;SDS011;66129;45.890;13.714;2023-09-19T09:07:50;5.45;;;1.65;;
77158;SDS011;66129;45.890;13.714;2023-09-19T09:10:21;5.28;;;2.60;;
77158;SDS011;66129;45.890;13.714;2023-09-19T09:12:51;5.20;;;1.70;;
77158;SDS011;66129;45.890;13.714;2023-09-19T09:15:21;9.95;;;2.28;;
77158;SDS011;66129;45.890;13.714;2023-09-19T09:17:49;10.63;;;2.42;;
77158;SDS011;66129;45.890;13.714;2023-09-19T09:20:16;6.38;;;2.60;;
77158;SDS011;66129;45.890;13.714;2023-09-19T09:22:54;5.88;;;1.90;;
77158;SDS011;66129;45.890;13.714;2023-09-19T09:25:23;5.22;;;2.40;;
77158;SDS011;66129;45.890;13.714;2023-09-19T09:28:12;7.70;;;2.20;;
77158;SDS011;66129;45.890;13.714;2023-09-19T09:30:45;6.68;;;2.00;;
77158;SDS011;66129;45.890;13.714;2023-09-19T09:33:11;3.40;;;1.55;;
77158;SDS011;66129;45.890;13.714;2023-09-19T09:38:18;4.82;;;2.00;;
77158;SDS011;66129;45.890;13.714;2023-09-19T09:40:48;6.90;;;2.17;;
77158;SDS011;66129;45.890;13.714;2023-09-19T09:43:27;6.43;;;2.00;;
77158;SDS011;66129;45.890;13.714;2023-09-19T09:46:06;5.45;;;1.77;;
77158;SDS011;66129;45.890;13.714;2023-09-19T09:51:42;5.22;;;2.17;;
77158;SDS011;66129;45.890;13.714;2023-09-19T09:54:28;6.03;;;2.40;;
77158;SDS011;66129;45.890;13.714;2023-09-19T09:57:10;4.28;;;1.85;;
77158;SDS011;66129;45.890;13.714;2023-09-19T10:02:16;4.07;;;1.58;;
77158;SDS011;66129;45.890;13.714;2023-09-19T10:04:53;3.75;;;1.67;;
77158;SDS011;66129;45.890;13.714;2023-09-19T10:07:37;2.80;;;1.50;;
77158;SDS011;66129;45.890;13.714;2023-09-19T10:10:06;3.08;;;1.75;;
77158;SDS011;66129;45.890;13.714;2023-09-19T10:12:42;4.88;;;1.80;;
77158;SDS011;66129;45.890;13.714;2023-09-19T10:15:13;8.35;;;1.52;;
77158;SDS011;66129;45.890;13.714;2023-09-19T10:17:43;3.30;;;1.20;;
77158;SDS011;66129;45.890;13.714;2023-09-19T10:20:12;3.08;;;1.27;;
77158;SDS011;66129;45.890;13.714;2023-09-19T10:22:57;2.20;;;1.20;;
77158;SDS011;66129;45.890;13.714;2023-09-19T10:25:34;1.95;;;1.00;;
77158;SDS011;66129;45.890;13.714;2023-09-19T10:28:02;3.17;;;1.40;;
77158;SDS011;66129;45.890;13.714;2023-09-19T10:30:31;2.60;;;1.42;;
77158;SDS011;66129;45.890;13.714;2023-09-19T10:33:03;2.58;;;1.23;;
77158;SDS011;66129;45.890;13.714;2023-09-19T10:35:30;2.10;;;1.25;;
77158;SDS011;66129;45.890;13.714;2023-09-19T10:37:59;2.50;;;1.40;;
77158;SDS011;66129;45.890;13.714;2023-09-19T10:40:29;4.70;;;1.40;;
77158;SDS011;66129;45.890;13.714;2023-09-19T10:43:04;3.33;;;1.38;;
77158;SDS011;66129;45.890;13.714;2023-09-19T10:45:33;2.53;;;1.17;;
77158;SDS011;66129;45.890;13.714;2023-09-19T10:48:00;2.17;;;1.20;;
77158;SDS011;66129;45.890;13.714;2023-09-19T10:50:35;2.42;;;1.35;;
77158;SDS011;66129;45.890;13.714;2023-09-19T10:53:09;1.98;;;1.17;;
77158;SDS011;66129;45.890;13.714;2023-09-19T10:55:37;5.10;;;1.50;;
77158;SDS011;66129;45.890;13.714;2023-09-19T10:58:03;2.17;;;1.15;;
77158;SDS011;66129;45.890;13.714;2023-09-19T11:03:21;3.17;;;1.33;;
77158;SDS011;66129;45.890;13.714;2023-09-19T11:06:09;3.60;;;1.20;;
77158;SDS011;66129;45.890;13.714;2023-09-19T11:11:44;1.20;;;0.88;;
77158;SDS011;66129;45.890;13.714;2023-09-19T11:30:30;2.10;;;0.90;;
77158;SDS011;66129;45.890;13.714;2023-09-19T11:46:28;3.10;;;1.30;;
77158;SDS011;66129;45.890;13.714;2023-09-19T11:49:05;1.85;;;1.10;;
77158;SDS011;66129;45.890;13.714;2023-09-19T11:51:50;2.10;;;1.10;;
77158;SDS011;66129;45.890;13.714;2023-09-19T11:54:19;1.40;;;0.82;;
77158;SDS011;66129;45.890;13.714;2023-09-19T11:56:50;1.63;;;1.02;;
77158;SDS011;66129;45.890;13.714;2023-09-19T11:59:38;2.00;;;0.88;;
77158;SDS011;66129;45.890;13.714;2023-09-19T12:02:04;3.08;;;1.17;;
77158;SDS011;66129;45.890;13.714;2023-09-19T12:07:13;2.97;;;1.63;;
77158;SDS011;66129;45.890;13.714;2023-09-19T12:09:50;2.35;;;1.08;;
77158;SDS011;66129;45.890;13.714;2023-09-19T12:12:27;2.67;;;1.15;;
77158;SDS011;66129;45.890;13.714;2023-09-19T12:14:55;1.88;;;1.10;;
77158;SDS011;66129;45.890;13.714;2023-09-19T12:17:24;1.58;;;0.85;;
77158;SDS011;66129;45.890;13.714;2023-09-19T12:20:07;2.60;;;1.25;;
77158;SDS011;66129;45.890;13.714;2023-09-19T12:22:45;1.50;;;1.15;;
77158;SDS011;66129;45.890;13.714;2023-09-19T12:25:14;2.38;;;1.20;;
77158;SDS011;66129;45.890;13.714;2023-09-19T12:27:47;3.13;;;1.23;;
77158;SDS011;66129;45.890;13.714;2023-09-19T12:30:21;1.48;;;1.08;;
77158;SDS011;66129;45.890;13.714;2023-09-19T12:32:53;3.60;;;1.40;;
77158;SDS011;66129;45.890;13.714;2023-09-19T12:35:33;1.40;;;1.00;;
77158;SDS011;66129;45.890;13.714;2023-09-19T12:38:02;3.75;;;2.25;;
77158;SDS011;66129;45.890;13.714;2023-09-19T12:40:28;3.15;;;1.08;;
77158;SDS011;66129;45.890;13.714;2023-09-19T12:42:58;2.63;;;1.23;;
77158;SDS011;66129;45.890;13.714;2023-09-19T12:45:24;2.22;;;1.50;;
77158;SDS011;66129;45.890;13.714;2023-09-19T12:51:05;2.35;;;1.17;;
77158;SDS011;66129;45.890;13.714;2023-09-19T12:53:32;2.53;;;1.10;;
77158;SDS011;66129;45.890;13.714;2023-09-19T12:55:59;2.30;;;1.20;;
77158;SDS011;66129;45.890;13.714;2023-09-19T12:58:25;2.83;;;1.50;;
77158;SDS011;66129;45.890;13.714;2023-09-19T13:00:50;3.13;;;1.92;;
77158;SDS011;66129;45.890;13.714;2023-09-19T13:11:03;3.78;;;1.20;;
77158;SDS011;66129;45.890;13.714;2023-09-19T13:16:10;2.45;;;1.25;;
77158;SDS011;66129;45.890;13.714;2023-09-19T13:18:43;2.97;;;1.20;;
77158;SDS011;66129;45.890;13.714;2023-09-19T13:21:13;3.10;;;1.60;;
77158;SDS011;66129;45.890;13.714;2023-09-19T13:23:52;1.95;;;1.27;;
77158;SDS011;66129;45.890;13.714;2023-09-19T13:26:24;1.73;;;1.10;;
77158;SDS011;66129;45.890;13.714;2023-09-19T13:28:53;4.95;;;1.70;;
77158;SDS011;66129;45.890;13.714;2023-09-19T13:31:19;4.93;;;2.05;;
77158;SDS011;66129;45.890;13.714;2023-09-19T13:33:47;4.43;;;1.88;;
77158;SDS011;66129;45.890;13.714;2023-09-19T13:36:13;6.65;;;2.28;;
77158;SDS011;66129;45.890;13.714;2023-09-19T13:38:39;27.30;;;11.65;;
77158;SDS011;66129;45.890;13.714;2023-09-19T13:41:07;13.35;;;2.83;;
77158;SDS011;66129;45.890;13.714;2023-09-19T13:43:35;6.70;;;2.75;;
77158;SDS011;66129;45.890;13.714;2023-09-19T13:46:00;26.27;;;12.00;;
77158;SDS011;66129;45.890;13.714;2023-09-19T13:48:26;43.47;;;9.73;;
77158;SDS011;66129;45.890;13.714;2023-09-19T13:50:55;22.10;;;6.53;;
77158;SDS011;66129;45.890;13.714;2023-09-19T13:53:24;4.10;;;1.38;;
77158;SDS011;66129;45.890;13.714;2023-09-19T13:55:50;1.75;;;1.15;;
77158;SDS011;66129;45.890;13.714;2023-09-19T13:58:16;2.25;;;1.27;;
77158;SDS011;66129;45.890;13.714;2023-09-19T14:00:42;3.17;;;1.50;;
77158;SDS011;66129;45.890;13.714;2023-09-19T14:03:08;3.85;;;1.70;;
77158;SDS011;66129;45.890;13.714;2023-09-19T14:05:33;4.93;;;2.03;;
77158;SDS011;66129;45.890;13.714;2023-09-19T14:07:59;4.53;;;1.30;;
77158;SDS011;66129;45.890;13.714;2023-09-19T14:10:25;1.75;;;1.00;;
77158;SDS011;66129;45.890;13.714;2023-09-19T14:12:55;2.30;;;1.10;;
77158;SDS011;66129;45.890;13.714;2023-09-19T14:15:20;3.17;;;1.10;;
77158;SDS011;66129;45.890;13.714;2023-09-19T14:17:54;3.25;;;1.13;;
77158;SDS011;66129;45.890;13.714;2023-09-19T14:20:21;2.42;;;1.08;;
77158;SDS011;66129;45.890;13.714;2023-09-19T14:22:46;1.95;;;1.15;;
77158;SDS011;66129;45.890;13.714;2023-09-19T14:25:13;3.58;;;1.48;;
77158;SDS011;66129;45.890;13.714;2023-09-19T14:27:38;2.28;;;1.15;;
77158;SDS011;66129;45.890;13.714;2023-09-19T14:30:05;1.85;;;1.20;;
77158;SDS011;66129;45.890;13.714;2023-09-19T14:32:41;3.55;;;1.50;;
77158;SDS011;66129;45.890;13.714;2023-09-19T14:35:07;1.65;;;1.00;;
77158;SDS011;66129;45.890;13.714;2023-09-19T14:37:38;2.95;;;1.50;;
77158;SDS011;66129;45.890;13.714;2023-09-19T14:40:05;3.47;;;1.30;;
77158;SDS011;66129;45.890;13.714;2023-09-19T14:42:34;3.55;;;1.13;;
77158;SDS011;66129;45.890;13.714;2023-09-19T14:45:05;2.97;;;1.30;;
77158;SDS011;66129;45.890;13.714;2023-09-19T14:47:31;1.88;;;1.20;;
77158;SDS011;66129;45.890;13.714;2023-09-19T14:49:59;2.65;;;1.27;;
77158;SDS011;66129;45.890;13.714;2023-09-19T14:52:32;2.58;;;1.42;;
77158;SDS011;66129;45.890;13.714;2023-09-19T14:54:59;2.17;;;1.23;;
77158;SDS011;66129;45.890;13.714;2023-09-19T14:57:25;2.45;;;1.30;;
77158;SDS011;66129;45.890;13.714;2023-09-19T14:59:51;3.28;;;1.30;;
77158;SDS011;66129;45.890;13.714;2023-09-19T15:02:29;1.88;;;1.17;;
77158;SDS011;66129;45.890;13.714;2023-09-19T15:05:01;2.20;;;1.10;;
77158;SDS011;66129;45.890;13.714;2023-09-19T15:07:26;3.05;;;1.42;;
77158;SDS011;66129;45.890;13.714;2023-09-19T15:09:54;2.47;;;1.30;;
77158;SDS011;66129;45.890;13.714;2023-09-19T15:12:19;2.33;;;1.50;;
77158;SDS011;66129;45.890;13.714;2023-09-19T15:14:44;8.73;;;2.67;;
77158;SDS011;66129;45.890;13.714;2023-09-19T15:17:10;1.60;;;1.20;;
77158;SDS011;66129;45.890;13.714;2023-09-19T15:19:35;2.70;;;1.30;;
77158;SDS011;66129;45.890;13.714;2023-09-19T15:22:02;2.88;;;1.30;;
77158;SDS011;66129;45.890;13.714;2023-09-19T15:24:28;3.45;;;1.90;;
77158;SDS011;66129;45.890;13.714;2023-09-19T15:26:54;4.35;;;1.42;;
77158;SDS011;66129;45.890;13.714;2023-09-19T15:29:20;2.97;;;1.40;;
77158;SDS011;66129;45.890;13.714;2023-09-19T15:31:46;2.50;;;1.40;;
77158;SDS011;66129;45.890;13.714;2023-09-19T15:34:11;2.10;;;1.30;;
77158;SDS011;66129;45.890;13.714;2023-09-19T15:36:40;2.20;;;1.40;;
77158;SDS011;66129;45.890;13.714;2023-09-19T15:39:07;5.15;;;1.65;;
77158;SDS011;66129;45.890;13.714;2023-09-19T15:41:39;3.08;;;1.27;;
77158;SDS011;66129;45.890;13.714;2023-09-19T15:44:12;3.78;;;1.80;;
77158;SDS011;66129;45.890;13.714;2023-09-19T15:46:38;3.90;;;1.48;;
77158;SDS011;66129;45.890;13.714;2023-09-19T15:49:04;2.95;;;1.85;;
77158;SDS011;66129;45.890;13.714;2023-09-19T15:51:30;2.22;;;1.30;;
77158;SDS011;66129;45.890;13.714;2023-09-19T15:53:55;5.63;;;1.70;;
77158;SDS011;66129;45.890;13.714;2023-09-19T15:56:22;3.97;;;1.50;;